createdAt,value
2023-02-06T00:01:46.792Z,15.40
2023-02-06T00:04:14.939Z,14.90
2023-02-06T00:06:43.360Z,14.70
2023-02-06T00:09:11.618Z,14.70
2023-02-06T00:25:25.522Z,17.50
2023-02-06T00:27:53.271Z,18.20
2023-02-06T00:30:21.353Z,16.70
2023-02-06T00:32:49.161Z,15.20
2023-02-06T00:35:16.965Z,17.30
2023-02-06T00:37:44.771Z,16.60
2023-02-06T00:40:12.564Z,15.20
2023-02-06T00:42:40.547Z,15.90
2023-02-06T00:45:09.128Z,15.80
2023-02-06T00:47:37.086Z,16.20
2023-02-06T00:50:05.944Z,17.40
2023-02-06T00:52:33.704Z,15.20
2023-02-06T00:55:01.484Z,16.10
2023-02-06T00:57:30.209Z,14.60
2023-02-06T00:59:58.117Z,15.70
2023-02-06T01:02:27.497Z,13.90
2023-02-06T01:04:55.260Z,13.30
2023-02-06T01:07:23.083Z,14.00
2023-02-06T01:09:50.936Z,13.70
2023-02-06T01:12:18.701Z,15.60
2023-02-06T01:14:47.618Z,16.50
2023-02-06T01:17:15.356Z,14.00
2023-02-06T01:19:43.296Z,14.80
2023-02-06T01:22:11.048Z,11.80
2023-02-06T01:24:38.871Z,13.60
2023-02-06T01:27:06.716Z,13.60
2023-02-06T01:29:34.477Z,10.10
2023-02-06T01:32:03.508Z,13.80
2023-02-06T01:34:31.272Z,16.70
2023-02-06T01:36:59.067Z,14.60
2023-02-06T01:39:26.892Z,13.50
2023-02-06T01:41:54.661Z,14.90
2023-02-06T01:44:26.251Z,14.20
2023-02-06T01:46:57.133Z,15.60
2023-02-06T01:49:28.769Z,14.60
2023-02-06T01:52:08.438Z,13.60
2023-02-06T01:54:36.300Z,13.40
2023-02-06T01:57:08.136Z,14.20
2023-02-06T01:59:36.863Z,13.50
2023-02-06T02:02:04.922Z,14.10
2023-02-06T02:04:33.783Z,14.60
2023-02-06T02:07:15.303Z,14.60
2023-02-06T02:09:43.693Z,9.00
2023-02-06T02:12:12.619Z,13.60
2023-02-06T02:14:42.802Z,11.80
2023-02-06T02:17:45.839Z,14.90
2023-02-06T02:20:43.805Z,13.90
2023-02-06T02:23:30.557Z,11.40
2023-02-06T02:28:37.578Z,11.20
2023-02-06T02:32:02.430Z,12.60
2023-02-06T02:34:44.981Z,13.70
2023-02-06T02:37:19.592Z,11.70
2023-02-06T02:39:53.324Z,14.00
2023-02-06T02:42:32.375Z,13.90
2023-02-06T02:45:09.637Z,14.50
2023-02-06T02:48:11.201Z,13.60
2023-02-06T02:50:40.278Z,17.00
2023-02-06T02:53:08.481Z,13.70
2023-02-06T02:55:36.917Z,15.20
2023-02-06T02:58:12.188Z,12.80
2023-02-06T03:00:47.570Z,14.70
2023-02-06T03:03:22.049Z,13.30
2023-02-06T03:06:25.934Z,14.50
2023-02-06T03:08:59.708Z,15.20
2023-02-06T03:11:27.992Z,16.30
2023-02-06T03:14:02.720Z,12.80
2023-02-06T03:16:41.020Z,16.50
2023-02-06T03:19:14.692Z,16.60
2023-02-06T03:21:45.387Z,15.50
2023-02-06T03:24:24.560Z,16.00
2023-02-06T03:26:58.801Z,17.30
2023-02-06T03:29:29.216Z,16.90
2023-02-06T03:32:05.615Z,14.00
2023-02-06T03:34:57.691Z,16.30
2023-02-06T03:37:27.023Z,17.20
2023-02-06T03:39:57.883Z,14.40
2023-02-06T03:42:28.431Z,12.30
2023-02-06T03:45:15.623Z,10.30
2023-02-06T03:47:46.540Z,14.60
2023-02-06T03:50:15.996Z,15.90
2023-02-06T03:52:48.356Z,5.40
2023-02-06T03:55:22.907Z,7.20
2023-02-06T03:58:05.628Z,13.80
2023-02-06T04:00:34.358Z,9.30
2023-02-06T04:03:03.817Z,11.10
2023-02-06T04:05:31.561Z,12.20
2023-02-06T04:07:59.402Z,14.00
2023-02-06T04:10:27.313Z,15.70
2023-02-06T04:12:55.797Z,16.90
2023-02-06T04:15:23.921Z,17.30
2023-02-06T04:18:00.105Z,14.70
2023-02-06T04:20:29.834Z,15.50
2023-02-06T04:22:59.237Z,13.70
2023-02-06T04:25:27.079Z,15.10
2023-02-06T04:27:55.529Z,13.70
2023-02-06T04:30:23.475Z,13.80
2023-02-06T04:32:51.304Z,16.30
2023-02-06T04:35:19.201Z,14.10
2023-02-06T04:37:46.890Z,10.80
2023-02-06T04:40:14.552Z,12.60
2023-02-06T04:42:42.945Z,15.30
2023-02-06T04:45:10.750Z,11.20
2023-02-06T04:47:38.562Z,13.70
2023-02-06T04:50:07.737Z,13.20
2023-02-06T04:52:35.566Z,11.80
2023-02-06T04:55:03.628Z,15.20
2023-02-06T04:57:31.378Z,14.80
2023-02-06T04:59:59.157Z,14.00
2023-02-06T05:02:26.929Z,15.30
2023-02-06T05:04:54.722Z,15.20
2023-02-06T05:07:22.519Z,12.60
2023-02-06T05:09:50.400Z,15.60
2023-02-06T05:24:34.299Z,18.00
2023-02-06T05:27:02.152Z,17.70
2023-02-06T05:29:29.857Z,18.20
2023-02-06T05:31:57.601Z,15.10
2023-02-06T05:34:25.567Z,16.90
2023-02-06T05:36:53.329Z,19.70
2023-02-06T05:39:21.191Z,19.80
2023-02-06T05:41:48.951Z,16.80
2023-02-06T05:44:16.796Z,17.40
2023-02-06T05:46:44.614Z,18.80
2023-02-06T05:49:12.306Z,20.00
2023-02-06T05:51:40.232Z,18.10
2023-02-06T05:54:08.067Z,18.90
2023-02-06T05:56:35.830Z,18.60
2023-02-06T05:59:03.601Z,17.80
2023-02-06T06:01:31.404Z,15.60
2023-02-06T06:03:59.633Z,11.90
2023-02-06T06:06:27.421Z,16.00
2023-02-06T06:08:55.141Z,15.00
2023-02-06T06:11:22.907Z,17.80
2023-02-06T06:13:50.582Z,17.10
2023-02-06T06:16:18.436Z,18.30
2023-02-06T06:18:46.321Z,16.10
2023-02-06T06:21:14.342Z,16.50
2023-02-06T06:23:42.186Z,11.30
2023-02-06T06:26:10.358Z,15.80
2023-02-06T06:28:38.940Z,9.70
2023-02-06T06:31:11.711Z,10.00
2023-02-06T06:33:40.082Z,17.80
2023-02-06T06:36:10.056Z,13.90
2023-02-06T06:38:38.404Z,9.60
2023-02-06T06:41:06.629Z,13.80
2023-02-06T06:43:34.872Z,12.40
2023-02-06T06:46:02.751Z,9.70
2023-02-06T06:48:31.423Z,14.70
2023-02-06T06:50:59.230Z,17.90
2023-02-06T06:53:27.312Z,9.70
2023-02-06T06:55:55.057Z,6.00
2023-02-06T06:58:22.795Z,12.80
2023-02-06T07:00:53.281Z,5.10
2023-02-06T07:03:21.114Z,13.50
2023-02-06T07:05:48.919Z,12.70
2023-02-06T07:08:16.733Z,17.40
2023-02-06T07:10:44.679Z,15.30
2023-02-06T07:13:12.947Z,7.30
2023-02-06T07:15:41.012Z,11.70
2023-02-06T07:18:11.570Z,6.50
2023-02-06T07:20:39.471Z,13.20
2023-02-06T07:23:07.331Z,8.70
2023-02-06T07:25:35.588Z,8.50
2023-02-06T07:28:03.618Z,8.70
2023-02-06T07:30:31.461Z,12.10
2023-02-06T07:32:59.297Z,7.40
2023-02-06T07:35:27.122Z,11.40
2023-02-06T07:37:55.317Z,7.90
2023-02-06T07:40:25.111Z,12.60
2023-02-06T07:42:52.973Z,10.90
2023-02-06T07:45:26.057Z,16.50
2023-02-06T07:47:53.921Z,15.60
2023-02-06T07:50:21.654Z,9.40
2023-02-06T07:52:49.550Z,14.50
2023-02-06T07:55:17.528Z,15.80
2023-02-06T07:57:45.243Z,10.70
2023-02-06T08:00:13.508Z,11.80
2023-02-06T08:02:42.069Z,6.50
2023-02-06T08:05:10.148Z,16.60
2023-02-06T08:07:37.958Z,13.50
2023-02-06T08:10:05.992Z,11.20
2023-02-06T08:12:33.743Z,8.20
2023-02-06T08:15:01.586Z,14.40
2023-02-06T08:17:29.430Z,7.20
2023-02-06T08:19:57.345Z,11.70
2023-02-06T08:22:32.285Z,8.00
2023-02-06T08:25:06.965Z,7.00
2023-02-06T08:27:34.922Z,8.70
2023-02-06T08:30:02.807Z,8.20
2023-02-06T08:32:34.987Z,14.40
2023-02-06T08:35:02.901Z,11.60
2023-02-06T08:37:32.282Z,10.90
2023-02-06T08:40:00.085Z,10.70
2023-02-06T08:42:27.937Z,10.60
2023-02-06T08:44:55.766Z,7.60
2023-02-06T08:47:23.663Z,9.40
2023-02-06T08:49:51.660Z,12.60
2023-02-06T08:52:19.481Z,5.50
2023-02-06T08:54:47.200Z,9.80
2023-02-06T08:57:15.005Z,10.90
2023-02-06T08:59:43.009Z,9.60
2023-02-06T09:02:11.984Z,7.90
2023-02-06T09:04:39.879Z,12.50
2023-02-06T09:07:07.655Z,10.80
2023-02-06T09:09:35.700Z,15.20
2023-02-06T09:12:04.095Z,13.40
2023-02-06T09:14:32.342Z,15.00
2023-02-06T09:17:00.195Z,14.30
2023-02-06T09:19:28.258Z,15.40
2023-02-06T09:21:56.891Z,15.30
2023-02-06T09:24:25.398Z,12.30
2023-02-06T09:26:59.806Z,10.00
2023-02-06T09:29:31.900Z,10.90
2023-02-06T09:32:00.277Z,15.00
2023-02-06T09:34:28.476Z,7.80
2023-02-06T09:36:57.924Z,9.20
2023-02-06T09:39:26.266Z,15.30
2023-02-06T09:42:04.694Z,15.20
2023-02-06T09:44:36.929Z,13.60
2023-02-06T09:47:22.047Z,7.60
2023-02-06T09:50:07.723Z,12.20
2023-02-06T09:52:54.597Z,12.50
2023-02-06T09:55:31.219Z,9.60
2023-02-06T09:58:11.179Z,9.90
2023-02-06T10:01:02.191Z,10.90
2023-02-06T10:03:59.277Z,12.80
2023-02-06T10:06:47.270Z,12.80
2023-02-06T10:09:24.605Z,10.10
2023-02-06T10:12:00.798Z,11.90
2023-02-06T10:14:39.038Z,9.20
2023-02-06T10:17:16.419Z,5.60
2023-02-06T10:19:59.637Z,10.20
2023-02-06T10:22:44.544Z,11.20
2023-02-06T10:25:22.228Z,23.80
2023-02-06T10:27:56.734Z,16.30
2023-02-06T10:30:31.300Z,18.40
2023-02-06T10:33:25.973Z,16.60
2023-02-06T10:36:08.006Z,15.50
2023-02-06T10:38:44.858Z,17.30
2023-02-06T10:42:03.578Z,12.70
2023-02-06T10:44:50.817Z,15.40
2023-02-06T10:47:36.253Z,19.30
2023-02-06T10:50:45.429Z,15.80
2023-02-06T10:53:37.126Z,18.70
2023-02-06T10:56:18.440Z,20.00
2023-02-06T10:58:53.066Z,20.90
2023-02-06T11:01:26.321Z,19.60
2023-02-06T11:04:04.517Z,22.10
2023-02-06T11:06:32.779Z,18.60
2023-02-06T11:09:00.670Z,24.50
2023-02-06T11:11:31.568Z,20.10
2023-02-06T11:14:14.067Z,12.00
2023-02-06T11:16:44.142Z,20.00
2023-02-06T11:19:26.599Z,22.30
2023-02-06T11:22:28.257Z,20.40
2023-02-06T11:25:05.977Z,20.80
2023-02-06T11:27:35.819Z,20.00
2023-02-06T11:30:23.857Z,20.80
2023-02-06T11:33:04.466Z,19.70
2023-02-06T11:35:47.417Z,19.40
2023-02-06T11:38:21.158Z,18.90
2023-02-06T11:41:01.987Z,19.20
2023-02-06T11:43:44.709Z,17.50
2023-02-06T11:46:15.445Z,12.90
2023-02-06T11:48:48.371Z,12.30
2023-02-06T11:51:16.938Z,8.40
2023-02-06T11:54:03.226Z,8.40
2023-02-06T11:56:31.796Z,12.90
2023-02-06T11:59:23.221Z,11.30
2023-02-06T12:01:51.058Z,10.60
2023-02-06T12:04:29.086Z,18.60
2023-02-06T12:07:16.469Z,21.30
2023-02-06T12:09:44.283Z,13.50
2023-02-06T12:12:20.430Z,8.70
2023-02-06T12:14:55.179Z,14.30
2023-02-06T12:17:36.078Z,14.30
2023-02-06T12:20:26.470Z,16.30
2023-02-06T12:22:59.088Z,22.30
2023-02-06T12:25:30.769Z,24.50
2023-02-06T12:28:11.819Z,18.50
2023-02-06T12:30:47.955Z,12.40
2023-02-06T12:33:21.149Z,21.60
2023-02-06T12:35:55.642Z,21.20
2023-02-06T12:38:51.160Z,20.80
2023-02-06T12:41:50.211Z,12.50
2023-02-06T12:44:36.858Z,18.20
2023-02-06T12:47:20.090Z,20.10
2023-02-06T12:49:59.852Z,12.90
2023-02-06T12:52:39.492Z,18.20
2023-02-06T12:55:22.475Z,19.10
2023-02-06T12:57:50.975Z,16.80
2023-02-06T13:00:38.269Z,14.70
2023-02-06T13:03:28.629Z,23.30
2023-02-06T13:06:04.274Z,23.00
2023-02-06T13:08:43.321Z,20.80
2023-02-06T13:11:39.129Z,22.90
2023-02-06T13:14:17.881Z,22.10
2023-02-06T13:16:50.833Z,23.80
2023-02-06T13:19:31.854Z,28.40
2023-02-06T13:22:13.076Z,21.50
2023-02-06T13:24:42.488Z,23.20
2023-02-06T13:27:38.240Z,22.80
2023-02-06T13:30:29.471Z,20.00
2023-02-06T13:33:13.918Z,20.00
2023-02-06T13:36:09.991Z,20.50
2023-02-06T13:38:38.856Z,19.00
2023-02-06T13:41:12.728Z,19.90
2023-02-06T13:44:17.598Z,20.30
2023-02-06T13:47:08.582Z,13.70
2023-02-06T13:49:57.997Z,20.20
2023-02-06T13:52:34.760Z,18.90
2023-02-06T13:55:12.074Z,17.80
2023-02-06T13:58:17.487Z,18.10
2023-02-06T14:00:49.689Z,17.30
2023-02-06T14:03:31.598Z,17.80
2023-02-06T14:06:08.757Z,17.50
2023-02-06T14:08:45.389Z,17.30
2023-02-06T14:11:53.224Z,17.40
2023-02-06T14:14:32.990Z,17.60
2023-02-06T14:17:09.860Z,18.00
2023-02-06T14:19:53.184Z,18.80
2023-02-06T14:22:42.293Z,18.20
2023-02-06T14:25:42.182Z,19.10
2023-02-06T14:28:26.817Z,17.10
2023-02-06T14:31:06.702Z,17.30
2023-02-06T14:33:56.753Z,17.90
2023-02-06T14:36:30.305Z,16.40
2023-02-06T14:39:35.748Z,20.20
2023-02-06T14:42:13.377Z,15.20
2023-02-06T14:44:42.851Z,10.10
2023-02-06T14:47:20.595Z,13.30
2023-02-06T14:49:49.563Z,15.50
2023-02-06T14:52:24.376Z,12.80
2023-02-06T14:54:52.612Z,19.80
2023-02-06T14:57:26.406Z,16.30
2023-02-06T15:00:04.393Z,13.50
2023-02-06T15:02:35.094Z,13.30
2023-02-06T15:05:04.925Z,17.40
2023-02-06T15:07:35.885Z,20.70
2023-02-06T15:10:08.596Z,19.30
2023-02-06T15:12:38.276Z,18.10
2023-02-06T15:15:19.301Z,20.80
2023-02-06T15:18:07.542Z,19.30
2023-02-06T15:20:40.340Z,19.70
2023-02-06T15:23:17.973Z,19.20
2023-02-06T15:25:53.608Z,18.70
2023-02-06T15:28:25.372Z,18.80
2023-02-06T15:30:58.982Z,19.80
2023-02-06T15:33:36.030Z,17.50
2023-02-06T15:36:04.416Z,18.40
2023-02-06T15:38:33.641Z,17.80
2023-02-06T15:41:06.729Z,18.20
2023-02-06T15:43:35.888Z,18.60
2023-02-06T15:46:05.711Z,18.40
2023-02-06T15:48:54.512Z,20.00
2023-02-06T15:51:27.209Z,19.00
2023-02-06T15:54:18.101Z,17.80
2023-02-06T15:56:54.825Z,17.40
2023-02-06T15:59:25.410Z,18.30
2023-02-06T16:01:55.618Z,18.70
2023-02-06T16:04:37.297Z,18.80
2023-02-06T16:07:24.433Z,18.40
2023-02-06T16:10:04.332Z,17.00
2023-02-06T16:12:37.970Z,19.50
2023-02-06T16:15:32.833Z,18.30
2023-02-06T16:18:18.327Z,19.50
2023-02-06T16:20:46.764Z,19.50
2023-02-06T16:23:22.776Z,18.20
2023-02-06T16:26:30.559Z,19.10
2023-02-06T16:29:24.634Z,20.60
2023-02-06T16:32:12.663Z,18.60
2023-02-06T16:34:43.300Z,26.40
2023-02-06T16:37:17.185Z,26.10
2023-02-06T16:39:45.886Z,22.30
2023-02-06T16:42:25.788Z,22.00
2023-02-06T16:44:59.298Z,23.50
2023-02-06T16:47:27.983Z,22.70
2023-02-06T16:49:56.086Z,22.80
2023-02-06T16:52:30.503Z,22.20
2023-02-06T16:54:59.158Z,24.10
2023-02-06T16:57:26.834Z,23.20
2023-02-06T16:59:54.678Z,22.50
2023-02-06T17:02:23.772Z,25.80
2023-02-06T17:04:52.011Z,23.80
2023-02-06T17:07:24.383Z,24.50
2023-02-06T17:09:54.034Z,28.50
2023-02-06T17:12:22.826Z,41.50
2023-02-06T17:14:50.846Z,35.50
2023-02-06T17:17:21.802Z,26.00
2023-02-06T17:19:50.675Z,26.60
2023-02-06T17:22:18.885Z,28.60
2023-02-06T17:24:46.968Z,26.90
2023-02-06T17:27:22.797Z,28.70
2023-02-06T17:29:51.456Z,26.60
2023-02-06T17:32:23.016Z,24.90
2023-02-06T17:34:53.976Z,27.70
2023-02-06T17:37:22.170Z,25.40
2023-02-06T17:39:52.134Z,25.70
2023-02-06T17:44:50.226Z,24.00
2023-02-06T17:47:18.195Z,26.60
2023-02-06T17:49:47.162Z,26.80
2023-02-06T17:52:15.347Z,25.00
2023-02-06T17:54:43.890Z,25.50
2023-02-06T17:57:13.568Z,25.70
2023-02-06T17:59:41.452Z,26.10
2023-02-06T18:02:12.815Z,25.00
2023-02-06T18:04:41.391Z,26.60
2023-02-06T18:07:09.272Z,25.30
2023-02-06T18:09:37.099Z,26.30
2023-02-06T18:12:04.969Z,24.80
2023-02-06T18:14:35.364Z,24.70
2023-02-06T18:17:03.710Z,23.60
2023-02-06T18:19:31.876Z,23.10
2023-02-06T18:22:00.193Z,25.30
2023-02-06T18:24:27.937Z,23.80
2023-02-06T18:26:55.716Z,24.70
2023-02-06T18:29:23.487Z,24.10
2023-02-06T18:31:51.361Z,24.10
2023-02-06T18:34:20.532Z,24.40
2023-02-06T18:36:48.717Z,26.30
2023-02-06T18:39:17.086Z,25.90
2023-02-06T18:42:03.748Z,26.10
2023-02-06T18:44:31.590Z,27.00
2023-02-06T18:46:59.505Z,25.90
2023-02-06T18:49:27.285Z,26.60
2023-02-06T18:51:55.106Z,28.40
2023-02-06T18:54:22.857Z,30.70
2023-02-06T18:56:50.607Z,25.60
2023-02-06T18:59:18.431Z,27.70
2023-02-06T19:01:48.226Z,28.10
2023-02-06T19:04:15.911Z,31.90
2023-02-06T19:06:44.869Z,33.40
2023-02-06T19:09:16.466Z,36.80
2023-02-06T19:11:44.189Z,39.10
2023-02-06T19:14:15.264Z,35.70
2023-02-06T19:16:47.491Z,30.00
2023-02-06T19:19:15.252Z,29.50
2023-02-06T19:21:43.433Z,28.60
2023-02-06T19:24:14.320Z,27.80
2023-02-06T19:29:13.863Z,29.90
2023-02-06T19:31:42.729Z,32.20
2023-02-06T19:34:10.915Z,29.30
2023-02-06T19:36:38.954Z,31.40
2023-02-06T19:39:09.354Z,31.80
2023-02-06T19:41:37.280Z,34.70
2023-02-06T19:44:08.588Z,34.20
2023-02-06T19:46:37.193Z,32.10
2023-02-06T19:49:08.614Z,30.20
2023-02-06T19:51:40.021Z,30.10
2023-02-06T19:54:08.424Z,28.60
2023-02-06T19:56:43.356Z,29.40
2023-02-06T19:59:18.690Z,28.60
2023-02-06T20:01:49.448Z,30.50
2023-02-06T20:04:18.873Z,27.30
2023-02-06T20:06:47.511Z,27.20
2023-02-06T20:09:16.044Z,29.20
2023-02-06T20:11:44.500Z,28.10
2023-02-06T20:14:12.655Z,29.00
2023-02-06T20:16:41.938Z,29.40
2023-02-06T20:19:27.005Z,27.10
2023-02-06T20:21:59.085Z,26.70
2023-02-06T20:24:30.358Z,26.70
2023-02-06T20:27:01.238Z,26.50
2023-02-06T20:29:32.684Z,26.10
2023-02-06T20:32:01.241Z,28.30
2023-02-06T20:34:29.642Z,25.10
2023-02-06T20:36:57.941Z,24.50
2023-02-06T20:39:26.396Z,26.80
2023-02-06T20:41:54.508Z,27.00
2023-02-06T20:44:22.629Z,26.00
2023-02-06T20:46:50.409Z,26.20
2023-02-06T20:49:27.600Z,22.00
2023-02-06T20:51:56.337Z,25.90
2023-02-06T20:54:25.040Z,28.60
2023-02-06T20:56:53.542Z,26.20
2023-02-06T20:59:21.795Z,25.10
2023-02-06T21:01:49.589Z,25.80
2023-02-06T21:04:18.515Z,26.00
2023-02-06T21:06:50.386Z,24.60
2023-02-06T21:09:18.922Z,24.60
2023-02-06T21:11:49.283Z,26.30
2023-02-06T21:14:18.261Z,20.30
2023-02-06T21:16:46.653Z,24.80
2023-02-06T21:19:16.645Z,25.40
2023-02-06T21:21:46.327Z,22.50
2023-02-06T21:24:15.739Z,25.20
2023-02-06T21:26:43.935Z,25.30
2023-02-06T21:29:14.451Z,24.70
2023-02-06T21:31:43.494Z,23.10
2023-02-06T21:34:21.297Z,21.60
2023-02-06T21:36:49.856Z,23.90
2023-02-06T21:39:21.966Z,24.00
2023-02-06T21:41:51.985Z,31.50
2023-02-06T21:44:21.009Z,39.80
2023-02-06T21:46:48.730Z,46.40
2023-02-06T21:49:17.611Z,52.00
2023-02-06T21:51:45.420Z,58.90
2023-02-06T21:54:13.139Z,56.80
2023-02-06T21:56:41.171Z,60.00
2023-02-06T21:59:10.605Z,63.60
2023-02-06T22:01:40.974Z,51.30
2023-02-06T22:04:11.374Z,21.70
2023-02-06T22:06:39.268Z,21.80
2023-02-06T22:09:10.940Z,20.30
2023-02-06T22:11:39.805Z,22.00
2023-02-06T22:14:11.329Z,21.10
2023-02-06T22:16:39.207Z,22.40
2023-02-06T22:19:07.819Z,21.30
2023-02-06T22:21:35.747Z,32.60
2023-02-06T22:24:06.403Z,26.00
2023-02-06T22:26:38.751Z,21.20
2023-02-06T22:29:08.512Z,18.70
2023-02-06T22:31:37.416Z,20.50
2023-02-06T22:34:05.249Z,24.40
2023-02-06T22:36:33.570Z,33.40
2023-02-06T22:39:07.036Z,37.90
2023-02-06T22:41:38.382Z,35.40
2023-02-06T22:44:06.205Z,22.80
2023-02-06T22:46:36.585Z,22.60
2023-02-06T22:49:05.546Z,24.10
2023-02-06T22:51:34.376Z,23.20
2023-02-06T22:54:02.532Z,22.40
2023-02-06T22:56:37.329Z,20.70
2023-02-06T22:59:12.272Z,21.70
2023-02-06T23:01:45.497Z,21.20
2023-02-06T23:04:15.774Z,20.80
2023-02-06T23:06:44.727Z,22.90
2023-02-06T23:09:16.842Z,20.30
2023-02-06T23:11:45.656Z,21.90
2023-02-06T23:14:15.340Z,21.50
2023-02-06T23:16:43.549Z,21.20
2023-02-06T23:19:13.352Z,25.20
2023-02-06T23:21:42.886Z,24.20
2023-02-06T23:24:11.677Z,27.20
2023-02-06T23:26:42.232Z,24.90
2023-02-06T23:29:15.824Z,27.50
2023-02-06T23:31:45.550Z,28.70
2023-02-06T23:34:14.291Z,25.30
2023-02-06T23:36:42.798Z,22.70
2023-02-06T23:39:11.994Z,21.30
2023-02-06T23:41:40.331Z,21.50
2023-02-06T23:44:10.169Z,22.90
2023-02-06T23:46:39.460Z,24.70
2023-02-06T23:49:08.142Z,21.20
2023-02-06T23:51:37.838Z,21.00
2023-02-06T23:54:07.736Z,20.40
2023-02-06T23:56:35.936Z,20.60
2023-02-06T23:59:05.560Z,19.60
